• Join FlightAware (Why Join?)
  • Login
  • US Flag 
04:02PM EDT


 

Airport Tracker/Info


-or-


 

Live Flight TrackerFlight Track Log ✈ AWE3417 ✈ 22-Apr-2013 ✈ KDCA - KCMH

Flight Track Log - Related Links

Times and Time Zones

All times are in EDT time to prevent confusion due to time zone crossing. See the AWE3417 flight status page for this flight to view local times or setup timezone preferences in your user account.

Time Position Orientation Groundspeed Altitude Reporting Facility
EDT Latitude Longitude Course Direction KTS MPH feet Rate Location/Type
08:27PM 38.8667 -77.0333 270° West 154 177 800  Level Potomac TRACON
08:28PM 38.9000 -77.0833 311° West 211 243 3,100 2,460 Climbing Potomac TRACON
08:29PM 38.9167 -77.3814 270° West  Level FlightAware Approximate
08:29PM 38.9500 -77.1500 314° West 261 300 5,800  Level Potomac TRACON
08:30PM 38.9333 -77.5004 270° West  Level FlightAware Approximate
08:30PM 38.9767 -77.2792 285° West 277 319 10,800  Level Washington Center
08:31PM 38.9333 -77.6257 270° West  Level FlightAware Approximate
08:31PM 38.9689 -77.3858 265° West 294 338 12,300  Level Washington Center
08:32PM 38.9333 -77.7509 270° West  Level FlightAware Approximate
08:32PM 38.9586 -77.5056 264° West 319 367 15,100  Level Washington Center
08:33PM 38.9483 -77.6281 264° West 347 399 18,000 2,400 Climbing Washington Center
08:34PM 38.9458 -77.7669 269° West 352 405 20,000 1,980 Climbing Washington Center
08:35PM 38.9494 -77.9031 272° West 366 421 22,000 1,860 Climbing Washington Center
08:36PM 38.9531 -78.0367 272° West 372 428 23,800 1,860 Climbing Washington Center
08:37PM 38.9586 -78.1783 273° West 386 444 25,800 1,740 Climbing Washington Center
08:38PM 38.9639 -78.3175 273° West 391 450 27,300 1,500 Climbing Washington Center
08:39PM 38.9667 -78.4589 271° West 391 450 28,800 1,320 Climbing Washington Center
08:40PM 38.9717 -78.6008 273° West 396 456 30,000 600 Climbing Washington Center
08:41PM 38.9764 -78.7478 272° West 408 470 30,000  Level Washington Center
08:42PM 38.9825 -78.9003 273° West 413 475 30,000  Level Washington Center
08:43PM 38.9844 -79.0525 271° West 425 489 30,000  Level Washington Center
08:44PM 38.9883 -79.2050 272° West 425 489 30,000 -240 Level Washington Center
08:45PM 38.9942 -79.3575 273° West 425 489 29,600 -600 Descending Washington Center
08:46PM 38.9956 -79.5097 271° West 425 489 28,900 -780 Descending Washington Center
08:47PM 39.0006 -79.6758 272° West 442 509 28,100 -480 Descending Washington Center
08:48PM 39.0014 -79.8281 270° West 442 509 28,000 -60 Descending Washington Center
08:49PM 39.0061 -79.9886 272° West 442 509 28,000  Level Washington Center
08:51PM 39.0064 -80.2108 270° West 441 507 28,000  Level Indianapolis Center
08:52PM 39.0081 -80.3686 271° West 442 509 28,000  Level Indianapolis Center
08:53PM 39.0275 -80.5231 279° West 447 514 28,000  Level Indianapolis Center
08:54PM 39.0842 -80.7033 292° West 454 522 28,000  Level Indianapolis Center
08:55PM 39.1311 -80.8514 292° West 450 518 28,000  Level Indianapolis Center
08:56PM 39.1792 -81.0006 293° West 454 522 28,000  Level Indianapolis Center
08:57PM 39.2258 -81.1500 292° West 453 521 28,000  Level Indianapolis Center
08:58PM 39.2722 -81.3011 292° West 455 524 28,000  Level Indianapolis Center
08:59PM 39.3183 -81.4506 292° West 453 521 28,000 -1,200 Level Indianapolis Center
09:00PM 39.3631 -81.5956 292° West 440 506 25,600 -2,580 Descending Indianapolis Center
09:01PM 39.4044 -81.7356 291° West 423 487 22,800 -2,760 Descending Indianapolis Center
09:02PM 39.4467 -81.8714 292° West 412 474 20,100 -2,700 Descending Indianapolis Center
09:03PM 39.4928 -82.0264 291° West 388 447 17,400 -2,580 Descending Indianapolis Center
09:04PM 39.5233 -82.1292 291° West 375 432 15,300 -2,400 Descending Indianapolis Center
09:05PM 39.5653 -82.2628 292° West 366 421 12,500 -2,340 Descending Indianapolis Center
09:06PM 39.6267 -82.3508 312° West 367 422 10,700 -1,440 Descending Indianapolis Center
09:07PM 39.7092 -82.4028 334° Northwest 356 410 10,000 -720 Descending Indianapolis Center
09:07PM 39.7203 -82.4094 335° Northwest 355 409 9,900 -1,020 Descending Indianapolis Center
09:08PM 39.7875 -82.4544 333° Northwest 279 321 8,900 -1,560 Descending Indianapolis Center
09:09PM 39.8511 -82.5100 326° Northwest 275 316 7,100 -1,860 Descending Indianapolis Center
09:10PM 39.8961 -82.5911 306° West 279 321 5,200 -1,500 Descending Indianapolis Center
09:11PM 39.9444 -82.6806 305° West 267 307 3,900 -1,080 Descending Indianapolis Center
09:12PM 39.9800 -82.7444 306° West 185 213 2,900 -900 Descending Indianapolis Center